createdAt,value
2023-03-06T00:01:28.828Z,17.3
2023-03-06T00:06:28.774Z,17.3
2023-03-06T00:11:28.831Z,20.4
2023-03-06T00:16:28.862Z,22.2
2023-03-06T00:21:28.868Z,24.3
2023-03-06T00:26:28.786Z,27.7
2023-03-06T00:31:28.853Z,27.9
2023-03-06T00:36:28.761Z,27.9
2023-03-06T00:41:28.827Z,18.3
2023-03-06T00:46:28.780Z,19.3
2023-03-06T00:51:28.830Z,11.9
2023-03-06T00:56:28.784Z,15.6
2023-03-06T01:01:28.821Z,16.4
2023-03-06T01:06:28.797Z,16.4
2023-03-06T01:11:28.875Z,25.2
2023-03-06T01:16:28.807Z,16.9
2023-03-06T01:21:28.890Z,19.5
2023-03-06T01:26:28.797Z,19.5
2023-03-06T01:31:28.878Z,11.4
2023-03-06T01:36:28.837Z,11.4
2023-03-06T01:41:28.966Z,18.3
2023-03-06T01:46:28.868Z,16.7
2023-03-06T01:51:28.975Z,14.4
2023-03-06T01:56:28.848Z,21.7
2023-03-06T02:01:29.017Z,16.8
2023-03-06T02:06:28.866Z,16.8
2023-03-06T02:11:29.017Z,16.9
2023-03-06T02:16:28.955Z,16.2
2023-03-06T02:21:28.954Z,14.6
2023-03-06T02:26:28.882Z,16.8
2023-03-06T02:31:28.989Z,16.8
2023-03-06T02:36:28.894Z,15.3
2023-03-06T02:41:28.969Z,14.9
2023-03-06T02:46:28.967Z,15.0
2023-03-06T02:51:28.945Z,16.5
2023-03-06T02:56:28.902Z,17.5
2023-03-06T03:01:28.992Z,17.5
2023-03-06T03:06:28.913Z,17.3
2023-03-06T03:11:28.999Z,16.3
2023-03-06T03:16:28.885Z,17.8
2023-03-06T03:21:28.992Z,18.4
2023-03-06T03:26:28.887Z,14.1
2023-03-06T03:31:28.992Z,14.1
2023-03-06T03:36:28.918Z,12.7
2023-03-06T03:41:28.986Z,18.8
2023-03-06T03:46:28.954Z,19.2
2023-03-06T03:51:28.993Z,17.5
2023-03-06T03:56:28.887Z,21.3
2023-03-06T04:01:29.071Z,21.3
2023-03-06T04:06:28.893Z,18.5
2023-03-06T04:11:28.969Z,20.0
2023-03-06T04:16:28.934Z,25.6
2023-03-06T04:21:28.972Z,26.4
2023-03-06T04:26:28.917Z,22.3
2023-03-06T04:31:29.065Z,22.3
2023-03-06T04:36:28.929Z,26.9
2023-03-06T04:41:29.025Z,24.3
2023-03-06T04:46:28.923Z,23.1
2023-03-06T04:51:29.039Z,25.9
2023-03-06T04:56:28.939Z,21.4
2023-03-06T05:01:29.068Z,21.4
2023-03-06T05:06:28.962Z,20.9
2023-03-06T05:11:29.094Z,22.4
2023-03-06T05:16:28.980Z,19.9
2023-03-06T05:21:29.076Z,17.3
2023-03-06T05:26:28.976Z,15.0
2023-03-06T05:31:29.075Z,15.0
2023-03-06T05:36:29.014Z,27.4
2023-03-06T05:41:29.103Z,27.1
2023-03-06T05:46:29.036Z,23.6
2023-03-06T05:51:29.145Z,20.4
2023-03-06T05:56:29.017Z,21.1
2023-03-06T06:01:29.138Z,21.1
2023-03-06T06:06:29.033Z,21.1
2023-03-06T06:11:29.156Z,23.3
2023-03-06T06:16:29.020Z,23.9
2023-03-06T06:21:29.150Z,20.0
2023-03-06T06:26:29.009Z,18.6
2023-03-06T06:31:29.262Z,18.6
2023-03-06T06:36:29.060Z,15.8
2023-03-06T06:41:53.512Z,15.2
2023-03-06T06:47:05.861Z,18.0
2023-03-06T06:51:29.200Z,21.4
2023-03-06T06:56:29.050Z,19.5
2023-03-06T07:01:29.211Z,19.5
2023-03-06T07:06:29.065Z,16.6
2023-03-06T07:11:29.163Z,19.7
2023-03-06T07:16:29.046Z,18.3
2023-03-06T07:21:29.140Z,22.9
2023-03-06T07:26:29.066Z,22.0
2023-03-06T07:31:29.228Z,22.0
2023-03-06T07:36:29.045Z,22.3
2023-03-06T07:41:29.145Z,21.2
2023-03-06T07:46:29.178Z,23.5
2023-03-06T07:51:29.145Z,24.7
2023-03-06T07:56:29.059Z,27.3
2023-03-06T08:01:29.110Z,27.3
2023-03-06T08:06:29.064Z,28.3
2023-03-06T08:11:29.111Z,25.7
2023-03-06T08:16:29.087Z,28.6
2023-03-06T08:21:29.170Z,27.9
2023-03-06T08:26:29.090Z,28.1
2023-03-06T08:31:29.370Z,28.1
2023-03-06T08:36:29.107Z,24.9
2023-03-06T08:41:29.247Z,26.9
2023-03-06T08:46:29.127Z,24.1
2023-03-06T08:51:29.241Z,24.0
2023-03-06T08:56:29.127Z,16.1
2023-03-06T09:01:29.345Z,16.1
2023-03-06T09:06:29.135Z,19.9
2023-03-06T09:11:29.233Z,16.8
2023-03-06T09:16:29.244Z,16.3
2023-03-06T09:21:29.181Z,14.7
2023-03-06T09:26:43.304Z,10.8
2023-03-06T09:31:29.289Z,10.8
2023-03-06T09:36:29.176Z,9.6
2023-03-06T09:41:29.376Z,26.9
2023-03-06T09:46:29.381Z,9.3
2023-03-06T09:51:29.314Z,9.0
2023-03-06T09:56:29.184Z,9.0
2023-03-06T10:01:29.251Z,9.0
2023-03-06T10:06:29.219Z,6.4
2023-03-06T10:11:29.404Z,5.8
2023-03-06T10:21:29.377Z,6.8
2023-03-06T10:26:29.339Z,4.1
2023-03-06T10:31:29.360Z,4.1
2023-03-06T10:36:29.171Z,6.0
2023-03-06T10:41:29.256Z,5.4
2023-03-06T10:46:29.294Z,4.7
2023-03-06T10:51:29.250Z,4.4
2023-03-06T10:56:29.206Z,4.9
2023-03-06T11:01:29.326Z,4.9
2023-03-06T11:06:29.203Z,5.6
2023-03-06T11:11:37.471Z,4.0
2023-03-06T11:16:29.332Z,6.0
2023-03-06T11:21:31.392Z,4.9
2023-03-06T11:26:29.223Z,3.2
2023-03-06T11:31:29.309Z,3.2
2023-03-06T11:36:29.204Z,5.7
2023-03-06T11:41:29.313Z,2.1
2023-03-06T11:46:29.282Z,1.7
2023-03-06T11:56:31.472Z,1.7
2023-03-06T12:01:29.324Z,1.7
2023-03-06T12:06:29.271Z,1.9
2023-03-06T12:11:30.694Z,3.0
2023-03-06T12:16:29.297Z,2.6
2023-03-06T12:21:29.347Z,1.9
2023-03-06T12:26:29.234Z,3.3
2023-03-06T12:31:29.444Z,3.3
2023-03-06T12:36:29.274Z,2.7
2023-03-06T12:41:29.332Z,2.2
2023-03-06T12:46:29.265Z,2.9
2023-03-06T12:51:29.356Z,2.5
2023-03-06T12:56:29.280Z,6.7
2023-03-06T13:01:29.359Z,6.7
2023-03-06T13:06:30.908Z,5.7
2023-03-06T13:11:29.383Z,3.1
2023-03-06T13:16:29.372Z,2.0
2023-03-06T13:21:29.391Z,1.7
2023-03-06T13:26:29.342Z,2.0
2023-03-06T13:31:29.546Z,2.0
2023-03-06T13:36:29.331Z,6.2
2023-03-06T13:41:29.466Z,3.2
2023-03-06T13:46:29.411Z,1.7
2023-03-06T13:51:29.424Z,2.0
2023-03-06T13:56:29.333Z,1.8
2023-03-06T14:01:29.546Z,1.8
2023-03-06T14:06:29.368Z,2.0
2023-03-06T14:11:29.540Z,1.7
2023-03-06T14:16:37.607Z,2.5
2023-03-06T14:21:29.491Z,4.6
2023-03-06T14:26:29.403Z,6.1
2023-03-06T14:31:29.549Z,6.1
2023-03-06T14:36:29.375Z,3.4
2023-03-06T14:41:29.535Z,4.2
2023-03-06T14:46:29.502Z,2.4
2023-03-06T14:51:29.492Z,3.0
2023-03-06T14:56:29.389Z,2.5
2023-03-06T15:01:29.517Z,2.5
2023-03-06T15:06:29.388Z,4.5
2023-03-06T15:11:29.463Z,4.1
2023-03-06T15:16:30.393Z,1.8
2023-03-06T15:21:29.450Z,1.9
2023-03-06T15:26:29.628Z,1.8
2023-03-06T15:31:29.478Z,1.8
2023-03-06T15:36:29.445Z,3.1
2023-03-06T15:41:29.559Z,1.5
2023-03-06T15:46:29.413Z,2.6
2023-03-06T15:51:29.564Z,3.9
2023-03-06T15:56:29.435Z,1.4
2023-03-06T16:01:29.664Z,1.4
2023-03-06T16:06:29.445Z,6.5
2023-03-06T16:11:35.440Z,1.8
2023-03-06T16:16:29.466Z,1.6
2023-03-06T16:21:29.550Z,2.1
2023-03-06T16:26:29.479Z,2.4
2023-03-06T16:31:29.631Z,2.4
2023-03-06T16:36:29.532Z,2.5
2023-03-06T16:41:29.658Z,1.7
2023-03-06T16:46:29.596Z,1.9
2023-03-06T16:51:29.649Z,2.7
2023-03-06T16:56:29.521Z,1.5
2023-03-06T17:01:29.732Z,1.5
2023-03-06T17:06:29.547Z,2.0
2023-03-06T17:11:29.716Z,1.8
2023-03-06T17:16:29.552Z,2.9
2023-03-06T17:21:29.635Z,3.6
2023-03-06T17:26:29.552Z,6.2
2023-03-06T17:31:29.727Z,6.2
2023-03-06T17:36:29.566Z,1.9
2023-03-06T17:41:29.633Z,5.5
2023-03-06T17:46:29.609Z,11.1
2023-03-06T17:51:29.601Z,9.6
2023-03-06T17:56:29.559Z,3.9
2023-03-06T18:01:29.668Z,3.9
2023-03-06T18:06:29.537Z,3.8
2023-03-06T18:11:29.610Z,4.9
2023-03-06T18:16:29.550Z,2.3
2023-03-06T18:21:29.602Z,6.3
2023-03-06T18:26:29.529Z,4.1
2023-03-06T18:31:30.485Z,4.1
2023-03-06T18:36:29.541Z,8.4
2023-03-06T18:41:29.644Z,9.1
2023-03-06T18:46:29.568Z,10.7
2023-03-06T18:51:29.701Z,6.5
2023-03-06T18:56:29.609Z,3.4
2023-03-06T19:01:29.837Z,3.4
2023-03-06T19:06:29.607Z,6.6
2023-03-06T19:11:29.754Z,8.2
2023-03-06T19:16:29.675Z,3.7
2023-03-06T19:21:29.691Z,4.4
2023-03-06T19:26:29.609Z,9.1
2023-03-06T19:31:29.715Z,9.1
2023-03-06T19:36:32.335Z,7.3
2023-03-06T19:41:29.693Z,5.5
2023-03-06T19:46:29.610Z,10.7
2023-03-06T19:51:29.692Z,8.9
2023-03-06T19:56:29.608Z,7.7
2023-03-06T20:01:29.757Z,7.7
2023-03-06T20:11:19.737Z,7.9
2023-03-06T20:16:19.656Z,9.5
2023-03-06T20:21:19.607Z,12.7
2023-03-06T20:26:19.605Z,10.2
2023-03-06T20:31:19.637Z,10.2
2023-03-06T20:36:19.593Z,10.5
2023-03-06T20:41:19.910Z,6.3
2023-03-06T20:46:19.639Z,6.6
2023-03-06T20:51:19.644Z,3.6
2023-03-06T20:56:19.596Z,4.8
2023-03-06T21:01:19.648Z,4.8
2023-03-06T21:06:19.609Z,6.6
2023-03-06T21:11:19.635Z,4.0
2023-03-06T21:16:19.741Z,7.5
2023-03-06T21:21:19.617Z,5.8
2023-03-06T21:26:19.592Z,9.8
2023-03-06T21:31:19.656Z,9.8
2023-03-06T21:36:19.596Z,6.4
2023-03-06T21:41:19.638Z,5.8
2023-03-06T21:46:19.653Z,5.3
2023-03-06T21:51:19.605Z,6.0
2023-03-06T21:56:19.607Z,9.1
2023-03-06T22:01:19.655Z,9.1
2023-03-06T22:06:19.602Z,4.3
2023-03-06T22:11:19.634Z,5.0
2023-03-06T22:16:19.616Z,6.3
2023-03-06T22:21:19.619Z,5.6
2023-03-06T22:26:19.674Z,4.9
2023-03-06T22:31:19.814Z,4.9
2023-03-06T22:36:19.661Z,4.3
2023-03-06T22:41:19.641Z,3.8
2023-03-06T22:46:19.704Z,4.4
2023-03-06T22:51:19.622Z,4.0
2023-03-06T22:56:19.693Z,2.4
2023-03-06T23:01:19.693Z,2.4
2023-03-06T23:06:19.681Z,3.3
2023-03-06T23:11:19.664Z,3.9
2023-03-06T23:16:19.743Z,2.6
2023-03-06T23:21:19.650Z,7.6
2023-03-06T23:26:19.749Z,6.1
2023-03-06T23:31:19.727Z,6.1
2023-03-06T23:36:19.757Z,7.2
2023-03-06T23:41:19.663Z,4.9
2023-03-06T23:46:19.795Z,10.1
2023-03-06T23:51:19.664Z,5.8
2023-03-06T23:56:19.741Z,7.0
